createdAt,value
2019-03-26T00:00:14.500Z,0
2019-03-26T00:01:15.172Z,0
2019-03-26T00:02:15.861Z,0
2019-03-26T00:03:16.539Z,0
2019-03-26T00:04:17.239Z,0
2019-03-26T00:05:18.317Z,0
2019-03-26T00:06:18.938Z,0
2019-03-26T00:07:19.630Z,0
2019-03-26T00:08:20.342Z,0
2019-03-26T00:09:21.014Z,0
2019-03-26T00:10:21.686Z,0
2019-03-26T00:11:22.378Z,0
2019-03-26T00:12:23.058Z,0
2019-03-26T00:13:23.707Z,0
2019-03-26T00:14:24.356Z,0
2019-03-26T00:15:25.050Z,0
2019-03-26T00:16:25.729Z,0
2019-03-26T00:17:26.415Z,0
2019-03-26T00:18:27.095Z,0
2019-03-26T00:19:27.778Z,0
2019-03-26T00:20:28.469Z,0
2019-03-26T00:21:29.160Z,0
2019-03-26T00:22:29.832Z,0
2019-03-26T00:23:30.520Z,0
2019-03-26T00:24:31.204Z,0
2019-03-26T00:25:31.858Z,0
2019-03-26T00:26:32.546Z,0
2019-03-26T00:27:33.221Z,0
2019-03-26T00:28:33.906Z,0
2019-03-26T00:29:34.583Z,0
2019-03-26T00:30:35.268Z,0
2019-03-26T00:31:35.956Z,0
2019-03-26T00:32:36.638Z,0
2019-03-26T00:33:37.311Z,0
2019-03-26T00:34:37.992Z,0
2019-03-26T00:35:38.687Z,0
2019-03-26T00:36:39.361Z,0
2019-03-26T00:37:40.042Z,0
2019-03-26T00:38:40.806Z,0
2019-03-26T00:39:41.417Z,0
2019-03-26T00:40:42.098Z,0
2019-03-26T00:41:42.772Z,0
2019-03-26T00:42:43.431Z,0
2019-03-26T00:43:44.103Z,0
2019-03-26T00:44:44.786Z,0
2019-03-26T00:45:45.480Z,0
2019-03-26T00:46:46.154Z,0
2019-03-26T00:47:46.838Z,0
2019-03-26T00:48:47.488Z,0
2019-03-26T00:49:48.174Z,0
2019-03-26T00:50:48.850Z,0
2019-03-26T00:51:49.539Z,0
2019-03-26T00:52:50.213Z,0
2019-03-26T00:53:50.894Z,0
2019-03-26T00:54:51.577Z,0
2019-03-26T00:55:52.268Z,0
2019-03-26T00:56:52.941Z,0
2019-03-26T00:57:53.624Z,0
2019-03-26T00:58:54.306Z,0
2019-03-26T00:59:55.020Z,0
2019-03-26T01:00:55.672Z,0
2019-03-26T01:01:56.320Z,0
2019-03-26T01:02:56.999Z,0
2019-03-26T01:03:57.680Z,0
2019-03-26T01:04:58.361Z,0
2019-03-26T01:05:59.104Z,0
2019-03-26T01:06:59.779Z,0
2019-03-26T01:08:00.458Z,0
2019-03-26T01:09:01.136Z,0
2019-03-26T01:10:01.828Z,0
2019-03-26T01:11:02.507Z,0
2019-03-26T01:12:03.185Z,0
2019-03-26T01:13:03.865Z,0
2019-03-26T01:14:04.539Z,0
2019-03-26T01:15:05.222Z,0
2019-03-26T01:16:05.905Z,0
2019-03-26T01:17:06.585Z,0
2019-03-26T01:18:07.260Z,0
2019-03-26T01:19:07.941Z,0
2019-03-26T01:20:08.636Z,0
2019-03-26T01:21:09.309Z,0
2019-03-26T01:22:09.995Z,0
2019-03-26T01:23:10.672Z,0
2019-03-26T01:24:11.360Z,0
2019-03-26T01:25:12.048Z,0
2019-03-26T01:26:12.723Z,0
2019-03-26T01:27:13.405Z,0
2019-03-26T01:28:14.085Z,0
2019-03-26T01:29:14.767Z,0
2019-03-26T01:30:15.448Z,0
2019-03-26T01:31:16.138Z,0
2019-03-26T01:32:16.813Z,0
2019-03-26T01:33:17.497Z,0
2019-03-26T01:34:18.177Z,0
2019-03-26T01:35:18.858Z,0
2019-03-26T01:36:19.547Z,0
2019-03-26T01:37:20.221Z,0
2019-03-26T01:38:20.898Z,0
2019-03-26T01:39:21.581Z,0
2019-03-26T01:40:22.270Z,0
2019-03-26T01:41:22.947Z,0
2019-03-26T01:42:23.636Z,0
2019-03-26T01:43:24.309Z,0
2019-03-26T01:44:24.987Z,0
2019-03-26T01:45:25.671Z,0
2019-03-26T01:46:26.350Z,0
2019-03-26T01:47:27.031Z,0
2019-03-26T01:48:27.714Z,0
2019-03-26T01:49:28.388Z,0
2019-03-26T01:50:29.070Z,0
2019-03-26T01:51:29.748Z,0
2019-03-26T01:52:30.435Z,0
2019-03-26T01:53:31.110Z,0
2019-03-26T01:54:31.787Z,0
2019-03-26T01:55:32.471Z,0
2019-03-26T01:56:33.206Z,0
2019-03-26T01:57:33.841Z,0
2019-03-26T01:58:34.513Z,0
2019-03-26T01:59:35.192Z,0
2019-03-26T02:00:35.878Z,0
2019-03-26T02:01:36.601Z,0
2019-03-26T02:02:37.265Z,0
2019-03-26T02:03:37.947Z,0
2019-03-26T02:04:38.634Z,0
2019-03-26T02:05:39.327Z,0
2019-03-26T02:06:39.998Z,0
2019-03-26T02:07:40.675Z,0
2019-03-26T02:08:41.359Z,0
2019-03-26T02:09:42.036Z,0
2019-03-26T02:10:42.723Z,0
2019-03-26T02:11:43.370Z,0
2019-03-26T02:12:44.057Z,0
2019-03-26T02:13:44.735Z,0
2019-03-26T02:14:45.417Z,0
2019-03-26T02:15:46.094Z,0
2019-03-26T02:16:46.774Z,0
2019-03-26T02:17:47.456Z,0
2019-03-26T02:18:48.140Z,0
2019-03-26T02:19:48.818Z,0
2019-03-26T02:20:49.505Z,0
2019-03-26T02:21:50.186Z,0
2019-03-26T02:22:50.859Z,0
2019-03-26T02:23:51.543Z,0
2019-03-26T02:24:52.231Z,0
2019-03-26T02:25:52.909Z,0
2019-03-26T02:26:53.638Z,0
2019-03-26T02:27:54.262Z,0
2019-03-26T02:28:54.937Z,0
2019-03-26T02:29:55.621Z,0
2019-03-26T02:30:56.380Z,0
2019-03-26T02:31:56.986Z,0
2019-03-26T02:32:57.677Z,0
2019-03-26T02:33:58.343Z,0
2019-03-26T02:35:16.247Z,0
2019-03-26T02:35:59.720Z,0
2019-03-26T02:37:00.408Z,0
2019-03-26T02:38:01.090Z,0
2019-03-26T02:39:01.776Z,0
2019-03-26T02:40:02.468Z,0
2019-03-26T02:41:03.141Z,0
2019-03-26T02:42:03.821Z,0
2019-03-26T02:43:04.496Z,0
2019-03-26T02:44:05.178Z,0
2019-03-26T02:45:05.864Z,0
2019-03-26T02:46:06.543Z,0
2019-03-26T02:47:07.220Z,0
2019-03-26T02:48:07.916Z,0
2019-03-26T02:49:08.584Z,0
2019-03-26T02:50:09.257Z,0
2019-03-26T02:51:09.941Z,0
2019-03-26T02:52:10.624Z,0
2019-03-26T02:53:11.301Z,0
2019-03-26T02:54:11.991Z,0
2019-03-26T02:55:12.658Z,0
2019-03-26T02:56:13.421Z,0
2019-03-26T02:57:14.021Z,0
2019-03-26T02:58:14.704Z,0
2019-03-26T02:59:15.381Z,0
2019-03-26T03:00:16.062Z,0
2019-03-26T03:01:16.743Z,0
2019-03-26T03:02:17.419Z,0
2019-03-26T03:03:18.100Z,0
2019-03-26T03:04:18.785Z,0
2019-03-26T03:05:34.395Z,0
2019-03-26T03:06:20.138Z,0
2019-03-26T03:07:20.821Z,0
2019-03-26T03:08:21.505Z,0
2019-03-26T03:09:22.182Z,0
2019-03-26T03:10:22.867Z,0
2019-03-26T03:11:23.553Z,0
2019-03-26T03:12:24.237Z,0
2019-03-26T03:13:24.917Z,0
2019-03-26T03:14:25.589Z,0
2019-03-26T03:15:26.272Z,0
2019-03-26T03:16:26.950Z,0
2019-03-26T03:17:27.600Z,0
2019-03-26T03:18:28.283Z,0
2019-03-26T03:19:28.973Z,0
2019-03-26T03:20:29.645Z,0
2019-03-26T03:21:30.328Z,0
2019-03-26T03:22:31.015Z,0
2019-03-26T03:23:31.689Z,0
2019-03-26T03:24:32.376Z,0
2019-03-26T03:25:33.062Z,0
2019-03-26T03:26:33.745Z,0
2019-03-26T03:27:34.420Z,0
2019-03-26T03:28:35.103Z,0
2019-03-26T03:29:35.896Z,0
2019-03-26T03:30:36.504Z,0
2019-03-26T03:31:37.189Z,0
2019-03-26T03:32:37.867Z,0
2019-03-26T03:33:38.569Z,0
2019-03-26T03:34:39.238Z,0
2019-03-26T03:35:51.868Z,0
2019-03-26T03:36:40.594Z,0
2019-03-26T03:37:41.275Z,0
2019-03-26T03:38:41.963Z,0
2019-03-26T03:39:42.655Z,0
2019-03-26T03:40:43.341Z,0
2019-03-26T03:41:44.047Z,0
2019-03-26T03:42:44.696Z,0
2019-03-26T03:43:45.399Z,0
2019-03-26T03:44:46.051Z,0
2019-03-26T03:45:46.733Z,0
2019-03-26T03:46:47.419Z,0
2019-03-26T03:47:48.109Z,0
2019-03-26T03:48:48.785Z,0
2019-03-26T03:49:49.462Z,0
2019-03-26T03:50:50.145Z,0
2019-03-26T03:51:50.840Z,0
2019-03-26T03:52:51.507Z,0
2019-03-26T03:53:52.181Z,0
2019-03-26T03:54:52.866Z,0
2019-03-26T03:55:53.559Z,0
2019-03-26T03:56:54.226Z,0
2019-03-26T03:57:54.905Z,0
2019-03-26T03:58:55.586Z,0
2019-03-26T03:59:56.286Z,0
2019-03-26T04:00:56.950Z,0
2019-03-26T04:01:57.639Z,0
2019-03-26T04:02:58.314Z,0
2019-03-26T04:03:58.996Z,0
2019-03-26T04:04:59.678Z,0
2019-03-26T04:06:08.984Z,0
2019-03-26T04:07:01.032Z,0
2019-03-26T04:08:01.720Z,0
2019-03-26T04:09:02.390Z,0
2019-03-26T04:10:03.075Z,0
2019-03-26T04:11:03.761Z,0
2019-03-26T04:12:04.439Z,0
2019-03-26T04:13:05.122Z,0
2019-03-26T04:14:05.799Z,0
2019-03-26T04:15:06.484Z,0
2019-03-26T04:16:07.161Z,0
2019-03-26T04:17:07.840Z,0
2019-03-26T04:18:08.520Z,0
2019-03-26T04:19:09.210Z,0
2019-03-26T04:20:09.890Z,0
2019-03-26T04:21:10.562Z,0
2019-03-26T04:22:11.246Z,0
2019-03-26T04:23:11.931Z,0
2019-03-26T04:24:12.599Z,0
2019-03-26T04:25:13.279Z,0
2019-03-26T04:26:13.967Z,0
2019-03-26T04:27:14.640Z,0
2019-03-26T04:28:15.319Z,0
2019-03-26T04:29:15.998Z,0
2019-03-26T04:30:16.674Z,0
2019-03-26T04:31:17.369Z,0
2019-03-26T04:32:18.047Z,0
2019-03-26T04:33:18.717Z,0
2019-03-26T04:34:22.507Z,0
2019-03-26T04:35:20.082Z,0
2019-03-26T04:36:25.939Z,0
2019-03-26T04:37:21.440Z,0
2019-03-26T04:38:22.115Z,0
2019-03-26T04:39:22.794Z,0
2019-03-26T04:40:23.478Z,0
2019-03-26T04:41:24.163Z,0
2019-03-26T04:42:24.851Z,4
2019-03-26T04:43:25.533Z,4
2019-03-26T04:44:26.219Z,0
2019-03-26T04:45:26.901Z,4
2019-03-26T04:46:27.577Z,4
2019-03-26T04:47:28.259Z,4
2019-03-26T04:48:28.939Z,4
2019-03-26T04:49:29.620Z,4
2019-03-26T04:50:30.310Z,8
2019-03-26T04:51:30.982Z,8
2019-03-26T04:52:31.665Z,12
2019-03-26T04:53:34.206Z,16
2019-03-26T04:54:33.041Z,16
2019-03-26T04:55:33.795Z,20
2019-03-26T04:56:34.392Z,24
2019-03-26T04:57:35.079Z,28
2019-03-26T04:58:35.762Z,32
2019-03-26T04:59:36.445Z,40
2019-03-26T05:00:37.140Z,44
2019-03-26T05:01:37.841Z,48
2019-03-26T05:02:38.513Z,56
2019-03-26T05:03:39.159Z,64
2019-03-26T05:04:39.844Z,72
2019-03-26T05:05:40.532Z,80
2019-03-26T05:06:41.208Z,88
2019-03-26T05:07:41.856Z,100
2019-03-26T05:08:42.540Z,120
2019-03-26T05:09:43.224Z,128
2019-03-26T05:10:43.910Z,132
2019-03-26T05:11:44.591Z,144
2019-03-26T05:12:45.271Z,168
2019-03-26T05:13:45.962Z,188
2019-03-26T05:14:46.642Z,188
2019-03-26T05:15:47.323Z,196
2019-03-26T05:16:48.005Z,220
2019-03-26T05:17:48.689Z,252
2019-03-26T05:18:49.376Z,288
2019-03-26T05:19:50.059Z,304
2019-03-26T05:20:50.746Z,312
2019-03-26T05:21:51.430Z,332
2019-03-26T05:22:52.114Z,372
2019-03-26T05:23:52.800Z,424
2019-03-26T05:24:53.483Z,480
2019-03-26T05:25:54.166Z,548
2019-03-26T05:26:54.854Z,584
2019-03-26T05:27:55.540Z,588
2019-03-26T05:28:56.230Z,636
2019-03-26T05:29:56.887Z,700
2019-03-26T05:30:57.572Z,752
2019-03-26T05:31:58.252Z,796
2019-03-26T05:32:58.953Z,844
2019-03-26T05:33:59.628Z,916
2019-03-26T05:35:00.345Z,1036
2019-03-26T05:36:01.000Z,1124
2019-03-26T05:37:01.681Z,1180
2019-03-26T05:38:02.366Z,1272
2019-03-26T05:39:03.020Z,1316
2019-03-26T05:40:03.708Z,1352
2019-03-26T05:41:04.400Z,1372
2019-03-26T05:42:05.076Z,1384
2019-03-26T05:43:05.763Z,1436
2019-03-26T05:44:06.449Z,1436
2019-03-26T05:45:07.141Z,1432
2019-03-26T05:46:07.832Z,1424
2019-03-26T05:47:08.521Z,1500
2019-03-26T05:48:09.199Z,1660
2019-03-26T05:49:09.891Z,1840
2019-03-26T05:50:10.570Z,1856
2019-03-26T05:51:11.409Z,1716
2019-03-26T05:52:12.083Z,1680
2019-03-26T05:53:12.771Z,1708
2019-03-26T05:54:13.462Z,1776
2019-03-26T05:55:14.117Z,1928
2019-03-26T05:56:14.808Z,2192
2019-03-26T05:57:15.502Z,2584
2019-03-26T05:58:16.176Z,3212
2019-03-26T05:59:16.871Z,3740
2019-03-26T06:00:17.554Z,4080
2019-03-26T06:01:18.246Z,4448
2019-03-26T06:02:18.935Z,4320
2019-03-26T06:03:19.622Z,4168
2019-03-26T06:04:20.315Z,4476
2019-03-26T06:05:20.995Z,4728
2019-03-26T06:06:21.689Z,4308
2019-03-26T06:07:22.376Z,3956
2019-03-26T06:08:23.077Z,3856
2019-03-26T06:09:23.748Z,3780
2019-03-26T06:10:24.432Z,3624
2019-03-26T06:11:25.117Z,3532
2019-03-26T06:12:25.805Z,3544
2019-03-26T06:13:26.491Z,3720
2019-03-26T06:14:27.181Z,3968
2019-03-26T06:15:27.871Z,4072
2019-03-26T06:16:38.204Z,4168
2019-03-26T06:17:29.237Z,4452
2019-03-26T06:18:29.924Z,4496
2019-03-26T06:19:30.616Z,4556
2019-03-26T06:20:31.299Z,4592
2019-03-26T06:21:31.987Z,4396
2019-03-26T06:22:32.676Z,4352
2019-03-26T06:23:33.358Z,4624
2019-03-26T06:24:34.046Z,4968
2019-03-26T06:25:34.738Z,5616
2019-03-26T06:26:35.425Z,5816
2019-03-26T06:27:36.113Z,5552
2019-03-26T06:28:36.795Z,5496
2019-03-26T06:29:37.484Z,5652
2019-03-26T06:30:38.170Z,6308
2019-03-26T06:31:38.857Z,6756
2019-03-26T06:32:39.558Z,6536
2019-03-26T06:33:40.275Z,6248
2019-03-26T06:34:40.921Z,6036
2019-03-26T06:35:41.621Z,5756
2019-03-26T06:36:42.295Z,5712
2019-03-26T06:37:42.981Z,5660
2019-03-26T06:38:43.666Z,5800
2019-03-26T06:39:44.354Z,6232
2019-03-26T06:40:45.038Z,6220
2019-03-26T06:41:45.725Z,5948
2019-03-26T06:42:46.415Z,5196
2019-03-26T06:43:47.098Z,4828
2019-03-26T06:44:47.784Z,5312
2019-03-26T06:45:48.438Z,6588
2019-03-26T06:46:49.093Z,7608
2019-03-26T06:47:49.775Z,7200
2019-03-26T06:48:50.477Z,6160
2019-03-26T06:49:51.151Z,5868
2019-03-26T06:50:51.838Z,5608
2019-03-26T06:51:52.525Z,4796
2019-03-26T06:52:53.211Z,4048
2019-03-26T06:53:53.900Z,3492
2019-03-26T06:54:54.581Z,3424
2019-03-26T06:55:55.270Z,4044
2019-03-26T06:56:55.958Z,5556
2019-03-26T06:57:56.647Z,6620
2019-03-26T06:58:57.334Z,5760
2019-03-26T06:59:57.987Z,4712
2019-03-26T07:00:58.678Z,5844
2019-03-26T07:01:59.343Z,6596
2019-03-26T07:03:00.024Z,6540
2019-03-26T07:04:00.711Z,6848
2019-03-26T07:05:01.401Z,7560
2019-03-26T07:06:02.090Z,7284
2019-03-26T07:07:02.776Z,6312
2019-03-26T07:08:03.458Z,6740
2019-03-26T07:09:04.146Z,7404
2019-03-26T07:10:04.834Z,7828
2019-03-26T07:11:05.548Z,7940
2019-03-26T07:12:07.797Z,8888
2019-03-26T07:13:06.895Z,9540
2019-03-26T07:14:07.583Z,9648
2019-03-26T07:15:08.267Z,9060
2019-03-26T07:16:08.957Z,9172
2019-03-26T07:17:09.643Z,10108
2019-03-26T07:18:10.330Z,10564
2019-03-26T07:19:11.017Z,10928
2019-03-26T07:20:11.708Z,10272
2019-03-26T07:21:12.391Z,9588
2019-03-26T07:22:13.079Z,9108
2019-03-26T07:23:13.777Z,8672
2019-03-26T07:24:14.450Z,7960
2019-03-26T07:25:15.134Z,7248
2019-03-26T07:26:15.830Z,7676
2019-03-26T07:27:16.515Z,8820
2019-03-26T07:28:17.205Z,10048
2019-03-26T07:29:17.890Z,12328
2019-03-26T07:30:18.573Z,14884
2019-03-26T07:31:19.260Z,18272
2019-03-26T07:32:19.947Z,20384
2019-03-26T07:33:20.636Z,19872
2019-03-26T07:34:21.319Z,20128
2019-03-26T07:35:22.010Z,22688
2019-03-26T07:36:22.667Z,22848
2019-03-26T07:37:23.354Z,18688
2019-03-26T07:38:24.043Z,14584
2019-03-26T07:39:24.709Z,12824
2019-03-26T07:40:25.402Z,13548
2019-03-26T07:41:26.084Z,14380
2019-03-26T07:42:26.775Z,14648
2019-03-26T07:43:27.464Z,13456
2019-03-26T07:44:28.153Z,12620
2019-03-26T07:45:28.838Z,12676
2019-03-26T07:46:29.537Z,13356
2019-03-26T07:47:30.280Z,15384
2019-03-26T07:48:31.237Z,14720
2019-03-26T07:49:32.156Z,14572
2019-03-26T07:50:32.754Z,13332
2019-03-26T07:51:33.440Z,12112
2019-03-26T07:52:34.148Z,13164
2019-03-26T07:53:34.865Z,18176
2019-03-26T07:54:35.561Z,21952
2019-03-26T07:55:36.253Z,22304
2019-03-26T07:56:36.941Z,23584
2019-03-26T07:57:37.634Z,20448
2019-03-26T07:58:38.320Z,18048
2019-03-26T07:59:39.016Z,15268
2019-03-26T08:00:39.703Z,13804
2019-03-26T08:01:40.359Z,15140
2019-03-26T08:02:41.048Z,12944
2019-03-26T08:03:41.734Z,32800
2019-03-26T08:04:42.419Z,34848
2019-03-26T08:05:43.122Z,34368
2019-03-26T08:06:43.801Z,39296
2019-03-26T08:07:57.490Z,27904
2019-03-26T08:08:45.168Z,36096
2019-03-26T08:09:45.892Z,37408
2019-03-26T08:10:46.580Z,40352
2019-03-26T08:11:47.269Z,42112
2019-03-26T08:12:47.980Z,42816
2019-03-26T08:13:48.647Z,40384
2019-03-26T08:14:49.351Z,40928
2019-03-26T08:15:49.999Z,42688
2019-03-26T08:16:50.717Z,42848
2019-03-26T08:17:51.376Z,35968
2019-03-26T08:18:52.086Z,41568
2019-03-26T08:19:52.761Z,39584
2019-03-26T08:20:53.451Z,39232
2019-03-26T08:21:54.139Z,37920
2019-03-26T08:22:54.839Z,38400
2019-03-26T08:23:55.516Z,40064
2019-03-26T08:24:56.208Z,43200
2019-03-26T08:25:56.900Z,42944
2019-03-26T08:26:57.591Z,47008
2019-03-26T08:27:58.285Z,45568
2019-03-26T08:29:00.966Z,49536
2019-03-26T08:29:59.665Z,49472
2019-03-26T08:31:00.354Z,48960
2019-03-26T08:32:01.034Z,48288
2019-03-26T08:33:01.728Z,39776
2019-03-26T08:34:02.417Z,32832
2019-03-26T08:35:03.106Z,25472
2019-03-26T08:36:03.807Z,23168
2019-03-26T08:37:04.487Z,24768
2019-03-26T08:38:12.235Z,27840
2019-03-26T08:39:05.872Z,34752
2019-03-26T08:40:06.562Z,43104
2019-03-26T08:41:07.245Z,67392
2019-03-26T08:42:07.939Z,56096
2019-03-26T08:43:08.630Z,53664
2019-03-26T08:44:09.323Z,56000
2019-03-26T08:45:10.020Z,33024
2019-03-26T08:46:10.702Z,26144
2019-03-26T08:47:11.391Z,24832
2019-03-26T08:48:12.082Z,25056
2019-03-26T08:49:14.205Z,28672
2019-03-26T08:50:13.457Z,25568
2019-03-26T08:51:14.144Z,19264
2019-03-26T08:52:14.840Z,16072
2019-03-26T08:53:15.530Z,12460
2019-03-26T08:54:16.222Z,14724
2019-03-26T08:55:16.913Z,19168
2019-03-26T08:56:17.601Z,19840
2019-03-26T08:57:18.292Z,20544
2019-03-26T08:58:18.980Z,18816
2019-03-26T08:59:19.669Z,16124
2019-03-26T09:00:20.374Z,18304
2019-03-26T09:01:21.056Z,18720
2019-03-26T09:02:21.748Z,17576
2019-03-26T09:03:22.435Z,16888
2019-03-26T09:04:23.131Z,18720
2019-03-26T09:05:23.819Z,20832
2019-03-26T09:06:24.509Z,20832
2019-03-26T09:07:25.202Z,19136
2019-03-26T09:08:25.969Z,18176
2019-03-26T09:09:26.577Z,16796
2019-03-26T09:10:27.233Z,14888
2019-03-26T09:11:27.919Z,16428
2019-03-26T09:12:28.588Z,18240
2019-03-26T09:13:29.275Z,18944
2019-03-26T09:14:29.965Z,19936
2019-03-26T09:15:30.661Z,21664
2019-03-26T09:16:31.340Z,22624
2019-03-26T09:17:32.025Z,22496
2019-03-26T09:18:32.721Z,22240
2019-03-26T09:19:33.411Z,22944
2019-03-26T09:20:34.101Z,23296
2019-03-26T09:21:34.789Z,22336
2019-03-26T09:22:35.479Z,21792
2019-03-26T09:23:36.162Z,22720
2019-03-26T09:24:36.853Z,23872
2019-03-26T09:25:37.548Z,25280
2019-03-26T09:26:38.237Z,26016
2019-03-26T09:27:38.922Z,26144
2019-03-26T09:28:39.613Z,26304
2019-03-26T09:29:40.301Z,25440
2019-03-26T09:30:40.992Z,24288
2019-03-26T09:31:41.690Z,23744
2019-03-26T09:32:42.370Z,22880
2019-03-26T09:33:43.062Z,21600
2019-03-26T09:34:43.748Z,20896
2019-03-26T09:35:44.446Z,21280
2019-03-26T09:36:45.128Z,22016
2019-03-26T09:37:45.819Z,23680
2019-03-26T09:38:46.508Z,22528
2019-03-26T09:39:47.201Z,20576
2019-03-26T09:40:47.890Z,18752
2019-03-26T09:41:48.580Z,19776
2019-03-26T09:42:49.267Z,20576
2019-03-26T09:43:49.957Z,19168
2019-03-26T09:44:50.654Z,20992
2019-03-26T09:45:51.343Z,22688
2019-03-26T09:46:52.025Z,19904
2019-03-26T09:47:52.716Z,19840
2019-03-26T09:48:53.408Z,22912
2019-03-26T09:49:54.107Z,26656
2019-03-26T09:50:54.803Z,27136
2019-03-26T09:51:55.489Z,26912
2019-03-26T09:52:56.178Z,26272
2019-03-26T09:53:56.871Z,27552
2019-03-26T09:54:57.562Z,29120
2019-03-26T09:55:58.254Z,30784
2019-03-26T09:56:58.943Z,32256
2019-03-26T09:57:59.635Z,33024
2019-03-26T09:59:00.333Z,31840
2019-03-26T10:00:01.025Z,30336
2019-03-26T10:01:01.711Z,28544
2019-03-26T10:02:02.400Z,26624
2019-03-26T10:03:03.092Z,25824
2019-03-26T10:04:03.792Z,25792
2019-03-26T10:05:04.479Z,24896
2019-03-26T10:06:05.175Z,26464
2019-03-26T10:07:05.855Z,27776
2019-03-26T10:08:06.542Z,27296
2019-03-26T10:09:07.238Z,23904
2019-03-26T10:10:07.894Z,18912
2019-03-26T10:11:08.585Z,16732
2019-03-26T10:12:09.281Z,15572
2019-03-26T10:13:09.964Z,16040
2019-03-26T10:14:10.659Z,16644
2019-03-26T10:15:11.345Z,17660
2019-03-26T10:16:12.035Z,18016
2019-03-26T10:17:12.730Z,19552
2019-03-26T10:18:13.420Z,18272
2019-03-26T10:19:16.843Z,21280
2019-03-26T10:20:14.795Z,22752
2019-03-26T10:21:15.487Z,22144
2019-03-26T10:22:16.181Z,20128
2019-03-26T10:23:16.869Z,17572
2019-03-26T10:24:17.560Z,14844
2019-03-26T10:25:18.254Z,13264
2019-03-26T10:26:18.943Z,12544
2019-03-26T10:27:19.633Z,13072
2019-03-26T10:28:20.331Z,15012
2019-03-26T10:29:30.030Z,16504
2019-03-26T10:30:24.683Z,19648
2019-03-26T10:31:22.389Z,27552
2019-03-26T10:32:23.083Z,37408
2019-03-26T10:33:23.771Z,34976
2019-03-26T10:34:24.463Z,27648
2019-03-26T10:35:25.157Z,29952
2019-03-26T10:36:25.848Z,24992
2019-03-26T10:37:26.537Z,24448
2019-03-26T10:38:27.230Z,23712
2019-03-26T10:39:27.919Z,20064
2019-03-26T10:40:28.614Z,18784
2019-03-26T10:41:29.303Z,20160
2019-03-26T10:42:29.989Z,19616
2019-03-26T10:43:30.681Z,19872
2019-03-26T10:44:31.376Z,17528
2019-03-26T10:45:32.072Z,19200
2019-03-26T10:46:32.758Z,17220
2019-03-26T10:47:33.460Z,13544
2019-03-26T10:48:34.143Z,11748
2019-03-26T10:49:34.837Z,14424
2019-03-26T10:50:35.509Z,16032
2019-03-26T10:51:36.186Z,13608
2019-03-26T10:52:36.884Z,12496
2019-03-26T10:53:37.562Z,12816
2019-03-26T10:54:38.257Z,14792
2019-03-26T10:55:38.945Z,14444
2019-03-26T10:56:39.635Z,14648
2019-03-26T10:57:40.331Z,14052
2019-03-26T10:58:41.024Z,13332
2019-03-26T10:59:41.721Z,16008
2019-03-26T11:00:42.404Z,14968
2019-03-26T11:01:43.093Z,12852
2019-03-26T11:02:43.786Z,10336
2019-03-26T11:03:44.482Z,8740
2019-03-26T11:04:45.223Z,11428
2019-03-26T11:05:45.916Z,15532
2019-03-26T11:06:46.606Z,15544
2019-03-26T11:07:47.306Z,19648
2019-03-26T11:08:47.990Z,21184
2019-03-26T11:09:48.677Z,20576
2019-03-26T11:10:49.367Z,19520
2019-03-26T11:11:50.059Z,20672
2019-03-26T11:12:50.745Z,22240
2019-03-26T11:13:51.406Z,20864
2019-03-26T11:14:52.132Z,20544
2019-03-26T11:15:52.786Z,17888
2019-03-26T11:16:53.477Z,19008
2019-03-26T11:17:54.160Z,20640
2019-03-26T11:18:54.852Z,18368
2019-03-26T11:19:55.542Z,17292
2019-03-26T11:21:02.722Z,16560
2019-03-26T11:21:57.785Z,15932
2019-03-26T11:22:58.484Z,17456
2019-03-26T11:23:59.165Z,19968
2019-03-26T11:24:59.850Z,20096
2019-03-26T11:26:00.536Z,20384
2019-03-26T11:27:01.224Z,22304
2019-03-26T11:28:01.911Z,22592
2019-03-26T11:29:02.597Z,20352
2019-03-26T11:30:03.297Z,19744
2019-03-26T11:31:03.984Z,20384
2019-03-26T11:32:04.679Z,24672
2019-03-26T11:33:05.369Z,26624
2019-03-26T11:34:06.068Z,26656
2019-03-26T11:35:06.774Z,26304
2019-03-26T11:36:07.482Z,24032
2019-03-26T11:37:08.165Z,22400
2019-03-26T11:38:08.859Z,22880
2019-03-26T11:39:09.550Z,22112
2019-03-26T11:40:10.227Z,18720
2019-03-26T11:41:11.059Z,13664
2019-03-26T11:42:11.922Z,10792
2019-03-26T11:43:12.614Z,13364
2019-03-26T11:44:13.303Z,12176
2019-03-26T11:45:13.995Z,10352
2019-03-26T11:46:14.678Z,11504
2019-03-26T11:47:15.369Z,13064
2019-03-26T11:48:16.053Z,9528
2019-03-26T11:49:16.744Z,12872
2019-03-26T11:50:17.442Z,15696
2019-03-26T11:51:18.125Z,16232
2019-03-26T11:52:18.814Z,16776
2019-03-26T11:53:19.520Z,19392
2019-03-26T11:54:20.197Z,15348
2019-03-26T11:55:21.971Z,11916
2019-03-26T11:56:21.575Z,10920
2019-03-26T11:57:22.260Z,10072
2019-03-26T11:58:30.249Z,9384
2019-03-26T11:59:23.637Z,8428
2019-03-26T12:00:24.329Z,6792
2019-03-26T12:01:25.022Z,6372
2019-03-26T12:02:25.751Z,7392
2019-03-26T12:03:26.410Z,7532
2019-03-26T12:04:27.082Z,7156
2019-03-26T12:05:27.782Z,7068
2019-03-26T12:06:28.474Z,7752
2019-03-26T12:07:29.153Z,7540
2019-03-26T12:08:29.852Z,7260
2019-03-26T12:09:30.528Z,7820
2019-03-26T12:10:31.218Z,9516
2019-03-26T12:11:31.907Z,10060
2019-03-26T12:12:32.602Z,11824
2019-03-26T12:13:33.286Z,10900
2019-03-26T12:14:33.975Z,6832
2019-03-26T12:15:34.662Z,7092
2019-03-26T12:16:35.349Z,7188
2019-03-26T12:17:36.062Z,6048
2019-03-26T12:18:36.725Z,8276
2019-03-26T12:19:37.413Z,10504
2019-03-26T12:20:38.104Z,10732
2019-03-26T12:21:38.789Z,11924
2019-03-26T12:22:39.481Z,13452
2019-03-26T12:23:40.184Z,11600
2019-03-26T12:24:40.867Z,9832
2019-03-26T12:25:41.550Z,9460
2019-03-26T12:26:42.244Z,9432
2019-03-26T12:27:42.934Z,11276
2019-03-26T12:28:43.624Z,13036
2019-03-26T12:29:44.313Z,11864
2019-03-26T12:30:45.003Z,10452
2019-03-26T12:31:45.688Z,9564
2019-03-26T12:32:46.376Z,6884
2019-03-26T12:33:47.067Z,5412
2019-03-26T12:34:47.762Z,6032
2019-03-26T12:35:48.451Z,5912
2019-03-26T12:36:49.140Z,5372
2019-03-26T12:37:49.865Z,5288
2019-03-26T12:38:50.545Z,5088
2019-03-26T12:39:59.489Z,5372
2019-03-26T12:40:51.915Z,5500
2019-03-26T12:41:52.602Z,6624
2019-03-26T12:42:53.288Z,9908
2019-03-26T12:43:53.980Z,12308
2019-03-26T12:44:54.682Z,12828
2019-03-26T12:45:55.436Z,12732
2019-03-26T12:46:58.377Z,12540
2019-03-26T12:47:56.734Z,12336
2019-03-26T12:48:57.423Z,12384
2019-03-26T12:49:58.117Z,12304
2019-03-26T12:50:58.801Z,12152
2019-03-26T12:51:59.493Z,12104
2019-03-26T12:53:00.181Z,11864
2019-03-26T12:54:00.873Z,12064
2019-03-26T12:55:01.552Z,12444
2019-03-26T12:56:02.243Z,13188
2019-03-26T12:57:02.933Z,12924
2019-03-26T12:58:03.617Z,12020
2019-03-26T12:59:04.307Z,11336
2019-03-26T13:00:05.011Z,13108
2019-03-26T13:01:05.682Z,12496
2019-03-26T13:02:06.369Z,13556
2019-03-26T13:03:07.056Z,13784
2019-03-26T13:04:12.803Z,12236
2019-03-26T13:05:08.437Z,10936
2019-03-26T13:06:09.129Z,10624
2019-03-26T13:07:09.815Z,7144
2019-03-26T13:08:10.500Z,5636
2019-03-26T13:09:11.187Z,6484
2019-03-26T13:10:13.974Z,6836
2019-03-26T13:11:12.559Z,9608
2019-03-26T13:12:13.246Z,11804
2019-03-26T13:13:13.936Z,11756
2019-03-26T13:14:14.627Z,11684
2019-03-26T13:15:15.317Z,11184
2019-03-26T13:16:16.008Z,11000
2019-03-26T13:17:16.706Z,11212
2019-03-26T13:18:17.538Z,9760
2019-03-26T13:19:18.223Z,9856
2019-03-26T13:20:18.910Z,10284
2019-03-26T13:21:19.603Z,10212
2019-03-26T13:22:20.299Z,9056
2019-03-26T13:23:21.031Z,8200
2019-03-26T13:24:21.722Z,8232
2019-03-26T13:25:22.415Z,7712
2019-03-26T13:26:23.088Z,7456
2019-03-26T13:27:23.775Z,6928
2019-03-26T13:28:24.464Z,7500
2019-03-26T13:29:25.154Z,7960
2019-03-26T13:30:25.834Z,7500
2019-03-26T13:31:26.520Z,6144
2019-03-26T13:32:27.224Z,7100
2019-03-26T13:33:27.912Z,6704
2019-03-26T13:34:28.582Z,7928
2019-03-26T13:35:29.269Z,8540
2019-03-26T13:36:29.960Z,8476
2019-03-26T13:37:30.649Z,7948
2019-03-26T13:38:31.339Z,7800
2019-03-26T13:39:32.027Z,7884
2019-03-26T13:40:32.715Z,8404
2019-03-26T13:41:33.408Z,9360
2019-03-26T13:42:34.094Z,9748
2019-03-26T13:43:34.782Z,9508
2019-03-26T13:44:35.469Z,10240
2019-03-26T13:45:36.155Z,10240
2019-03-26T13:46:36.842Z,9232
2019-03-26T13:47:37.535Z,10016